Time;durP1;ratioP1;P1;durP2;ratioP2;P2;SDS_P1;SDS_P2;PMS_P1;PMS_P2;Temp;Humidity;BMP_temperature;BMP_pressure;BME280_temperature;BME280_humidity;BME280_pressure;Samples;Min_cycle;Max_cycle;Signal;HPM_P1;HPM_P2
2023/05/07 00:01:08;;;;;;;7.05;3.50;;;;;;;24.20;42.16;99666.91;4421977;32;34474;-62
2023/05/07 00:03:36;;;;;;;7.10;3.58;;;;;;;24.21;42.13;99665.03;4408012;32;32138;-62
2023/05/07 00:06:04;;;;;;;5.18;2.97;;;;;;;24.19;42.22;99668.81;4421981;32;34192;-61
2023/05/07 00:08:31;;;;;;;6.47;3.15;;;;;;;24.18;42.27;99672.59;4421866;32;34100;-61
2023/05/07 00:10:59;;;;;;;6.57;3.22;;;;;;;24.19;42.15;99671.53;4421879;32;34200;-62
2023/05/07 00:13:27;;;;;;;4.60;3.00;;;;;;;24.18;42.02;99669.88;4421548;32;33746;-62
2023/05/07 00:15:54;;;;;;;4.82;3.20;;;;;;;24.19;41.96;99671.53;4421689;32;33877;-62
2023/05/07 00:18:22;;;;;;;7.60;3.05;;;;;;;24.19;41.93;99668.81;4421954;32;33986;-62
2023/05/07 00:20:49;;;;;;;6.30;2.95;;;;;;;24.19;41.90;99663.34;4421495;32;34024;-62
2023/05/07 00:23:17;;;;;;;5.37;3.17;;;;;;;24.19;41.89;99665.25;4421685;32;34107;-62
2023/05/07 00:25:45;;;;;;;4.57;3.00;;;;;;;24.19;41.88;99668.81;4410644;32;33522;-62
2023/05/07 00:28:12;;;;;;;5.05;3.10;;;;;;;24.19;41.85;99671.53;4432461;32;34005;-62
2023/05/07 00:30:40;;;;;;;5.80;3.03;;;;;;;24.20;41.87;99677.81;4433262;32;34031;-62
2023/05/07 00:33:07;;;;;;;5.22;3.00;;;;;;;24.19;41.85;99671.53;4423793;32;33674;-62
2023/05/07 00:35:35;;;;;;;4.45;3.17;;;;;;;24.20;41.84;99672.38;4420235;32;33452;-62
2023/05/07 00:38:02;;;;;;;5.07;3.08;;;;;;;24.19;41.86;99681.63;4421497;32;33771;-62
2023/05/07 00:40:30;;;;;;;4.20;2.95;;;;;;;24.18;41.92;99667.16;4421609;32;34931;-62
2023/05/07 00:42:58;;;;;;;5.97;2.95;;;;;;;24.19;41.95;99676.16;4429008;32;34688;-62
2023/05/07 00:45:27;;;;;;;4.57;2.90;;;;;;;24.18;41.96;99675.34;4415152;32;33450;-62
2023/05/07 00:47:59;;;;;;;4.75;2.90;;;;;;;24.17;41.95;99678.31;4427106;32;34773;-62
2023/05/07 00:50:26;;;;;;;4.53;2.90;;;;;;;24.17;42.03;99675.56;4423600;32;33267;-62
2023/05/07 00:52:54;;;;;;;4.15;2.72;;;;;;;24.17;42.03;99678.31;4422988;32;33881;-62
2023/05/07 00:55:22;;;;;;;7.40;2.87;;;;;;;24.16;41.98;99680.22;4438868;32;33603;-62
2023/05/07 00:57:50;;;;;;;5.60;2.67;;;;;;;24.15;41.97;99684.00;4423730;32;33736;-62
2023/05/07 01:00:18;;;;;;;5.03;3.10;;;;;;;24.15;41.95;99677.69;4423359;32;33936;-62
2023/05/07 01:02:46;;;;;;;5.15;2.72;;;;;;;24.14;42.02;99671.41;4423135;32;34537;-62
2023/05/07 01:05:16;;;;;;;4.25;2.40;;;;;;;24.15;41.95;99675.81;4423062;32;33495;-62
2023/05/07 01:07:44;;;;;;;6.95;3.15;;;;;;;24.15;41.89;99675.81;4409550;32;33984;-62
2023/05/07 01:10:11;;;;;;;4.22;2.80;;;;;;;24.16;41.88;99673.94;4393789;32;34145;-62
2023/05/07 01:12:39;;;;;;;3.97;2.67;;;;;;;24.17;41.84;99672.84;4407883;32;33601;-62
2023/05/07 01:15:08;;;;;;;4.45;3.00;;;;;;;24.15;41.84;99670.38;4406474;32;34201;-62
2023/05/07 01:17:36;;;;;;;4.65;2.87;;;;;;;24.13;41.84;99674.38;4407908;32;32633;-62
2023/05/07 01:20:05;;;;;;;3.92;2.67;;;;;;;24.14;41.86;99673.31;4407012;32;33783;-62
2023/05/07 01:22:36;;;;;;;3.95;2.78;;;;;;;24.13;41.94;99675.22;4409395;32;34245;-62
2023/05/07 01:25:05;;;;;;;5.10;2.83;;;;;;;24.15;41.91;99683.16;4423219;32;33105;-62
2023/05/07 01:27:33;;;;;;;4.32;2.80;;;;;;;24.15;41.87;99674.97;4423341;32;33841;-62
2023/05/07 01:30:01;;;;;;;4.28;2.70;;;;;;;24.15;41.89;99680.41;4423144;32;34720;-62
2023/05/07 01:33:03;;;;;;;4.03;2.62;;;;;;;24.14;41.86;99685.03;4422864;32;33477;-62
2023/05/07 01:35:34;;;;;;;5.60;3.03;;;;;;;24.15;41.84;99689.47;4420543;32;32924;-62
2023/05/07 01:38:04;;;;;;;;;;;;;;;24.13;41.88;99691.56;4409529;32;34072;-62
2023/05/07 01:40:31;;;;;;;5.03;3.22;;;;;;;24.23;41.69;99691.00;4423077;32;34173;-62
2023/05/07 01:42:59;;;;;;;4.28;2.95;;;;;;;24.15;41.77;99686.72;4409393;32;34560;-62
2023/05/07 01:45:26;;;;;;;7.78;2.95;;;;;;;24.14;41.81;99690.50;4396854;32;33506;-62
2023/05/07 01:47:54;;;;;;;4.70;2.85;;;;;;;24.12;41.82;99683.63;4397042;32;34007;-62
2023/05/07 01:50:22;;;;;;;5.97;3.15;;;;;;;24.12;41.84;99687.19;4409283;32;33982;-61
2023/05/07 01:52:50;;;;;;;5.68;3.00;;;;;;;24.10;41.89;99686.56;4396276;32;34010;-62
2023/05/07 01:55:18;;;;;;;5.18;2.87;;;;;;;24.10;41.91;99688.47;4422915;32;34346;-61
2023/05/07 01:57:45;;;;;;;5.80;3.30;;;;;;;24.11;41.84;99687.44;4422908;32;34427;-62
2023/05/07 02:00:15;;;;;;;;;;;;;;;24.11;41.77;99679.25;4423286;32;34732;-62
2023/05/07 02:02:44;;;;;;;3.85;2.50;;;;;;;24.21;41.57;99675.94;4422835;32;35054;-62
2023/05/07 02:05:14;;;;;;;4.15;2.65;;;;;;;24.13;41.70;99671.66;4423287;32;32599;-62
2023/05/07 02:07:42;;;;;;;4.57;2.87;;;;;;;24.11;41.73;99671.91;4423078;32;33705;-62
2023/05/07 02:10:09;;;;;;;5.10;2.65;;;;;;;24.08;41.76;99669.62;4422951;32;34896;-62
2023/05/07 02:12:37;;;;;;;4.35;2.87;;;;;;;24.08;41.81;99669.62;4422903;32;33485;-62
2023/05/07 02:15:05;;;;;;;4.53;2.87;;;;;;;24.08;41.82;99666.09;4422670;32;33113;-62
2023/05/07 02:17:35;;;;;;;4.27;2.90;;;;;;;24.07;41.85;99667.97;4422933;32;33917;-62
2023/05/07 02:20:03;;;;;;;5.93;2.80;;;;;;;24.07;41.84;99678.06;4422809;32;34606;-62
2023/05/07 02:22:31;;;;;;;3.92;2.78;;;;;;;24.06;41.88;99669.06;4422796;32;34570;-62
2023/05/07 02:24:59;;;;;;;4.47;2.95;;;;;;;24.07;41.82;99673.44;4422910;32;33217;-62
2023/05/07 02:27:26;;;;;;;4.53;2.97;;;;;;;24.06;41.79;99674.50;4422643;32;34088;-62
2023/05/07 02:29:54;;;;;;;5.85;3.10;;;;;;;24.07;41.78;99667.16;4422741;32;34065;-62
2023/05/07 02:32:22;;;;;;;5.18;2.90;;;;;;;24.06;41.80;99660.00;4422450;32;33930;-62
2023/05/07 02:34:51;;;;;;;5.20;3.10;;;;;;;24.06;41.72;99660.88;4422862;32;33579;-62
2023/05/07 02:37:18;;;;;;;5.22;2.95;;;;;;;24.06;41.69;99662.75;4422576;32;34086;-62
2023/05/07 02:39:46;;;;;;;5.07;3.00;;;;;;;24.06;41.60;99657.28;4422704;32;34129;-62
2023/05/07 02:42:14;;;;;;;4.97;2.92;;;;;;;24.05;41.62;99659.19;4422690;32;34064;-62
2023/05/07 02:44:41;;;;;;;4.68;2.80;;;;;;;24.05;41.71;99663.81;4422774;32;33543;-61
2023/05/07 02:47:10;;;;;;;4.95;3.05;;;;;;;24.04;41.72;99654.81;4422297;32;33938;-62
2023/05/07 02:49:37;;;;;;;4.62;2.80;;;;;;;24.04;41.71;99657.53;4407623;32;34201;-62
2023/05/07 02:52:05;;;;;;;4.72;3.15;;;;;;;24.04;41.76;99662.97;4407497;32;34134;-62
2023/05/07 02:54:33;;;;;;;5.85;3.20;;;;;;;24.03;41.65;99658.59;4407141;32;33173;-62
2023/05/07 02:57:01;;;;;;;4.32;2.55;;;;;;;24.04;41.60;99670.34;4407099;32;34382;-62
2023/05/07 02:59:29;;;;;;;4.35;2.60;;;;;;;24.02;41.56;99662.41;4407295;32;33925;-62
2023/05/07 03:01:57;;;;;;;5.37;3.05;;;;;;;24.02;41.51;99661.56;4407541;32;33701;-62
2023/05/07 03:04:25;;;;;;;5.07;3.03;;;;;;;24.01;41.51;99659.88;4408125;32;33228;-62
2023/05/07 03:06:52;;;;;;;6.12;2.87;;;;;;;24.01;41.49;99659.88;4422476;32;34041;-62
2023/05/07 03:09:20;;;;;;;4.82;2.67;;;;;;;24.02;41.53;99664.31;4422300;32;34974;-62
2023/05/07 03:11:47;;;;;;;4.62;3.08;;;;;;;23.99;41.51;99657.41;4422739;32;33495;-62
2023/05/07 03:14:15;;;;;;;6.62;3.47;;;;;;;23.99;41.48;99657.41;4422499;32;33095;-62
2023/05/07 03:16:43;;;;;;;5.57;3.58;;;;;;;23.98;41.50;99661.19;4422579;32;33749;-62
2023/05/07 03:19:10;;;;;;;4.87;3.42;;;;;;;23.99;41.47;99659.31;4422475;32;34993;-62
2023/05/07 03:21:38;;;;;;;4.95;3.50;;;;;;;23.98;41.46;99658.47;4422442;32;33720;-62
2023/05/07 03:24:05;;;;;;;5.53;3.72;;;;;;;23.98;41.46;99655.75;4408717;32;33999;-62
2023/05/07 03:26:33;;;;;;;5.28;3.50;;;;;;;23.98;41.45;99663.09;4422401;32;33901;-62
2023/05/07 03:29:00;;;;;;;5.47;3.62;;;;;;;23.96;41.44;99657.87;4422263;32;34781;-62
2023/05/07 03:31:28;;;;;;;6.00;3.20;;;;;;;23.98;41.42;99663.09;4422367;32;34357;-62
2023/05/07 03:33:56;;;;;;;5.57;3.40;;;;;;;23.97;41.39;99656.81;4396381;32;33567;-61
2023/05/07 03:36:26;;;;;;;5.30;3.53;;;;;;;23.97;41.42;99661.41;4422181;32;34009;-62
2023/05/07 03:38:54;;;;;;;5.87;3.92;;;;;;;23.97;41.38;99662.28;4422353;32;34876;-62
2023/05/07 03:41:22;;;;;;;5.22;3.33;;;;;;;23.98;41.43;99663.94;4422390;32;34530;-61
2023/05/07 03:43:50;;;;;;;5.12;3.35;;;;;;;23.96;41.44;99665.22;4408471;32;34001;-61
2023/05/07 03:46:17;;;;;;;5.57;3.62;;;;;;;23.95;41.39;99669.84;4422151;32;34247;-61
2023/05/07 03:48:45;;;;;;;5.20;3.50;;;;;;;23.96;41.38;99670.66;4422410;32;34548;-62
2023/05/07 03:51:13;;;;;;;6.68;3.30;;;;;;;23.96;41.35;99671.50;4422173;32;33921;-62
2023/05/07 03:53:41;;;;;;;5.75;3.12;;;;;;;23.97;41.36;99675.91;4408461;32;33481;-62
2023/05/07 03:56:09;;;;;;;5.78;3.28;;;;;;;23.97;41.32;99677.78;4421859;32;33965;-62
2023/05/07 03:58:37;;;;;;;5.10;3.50;;;;;;;23.97;41.34;99675.91;4421947;32;34795;-61
2023/05/07 04:01:05;;;;;;;6.57;3.50;;;;;;;23.96;41.38;99682.38;4421965;32;33063;-62
2023/05/07 04:03:32;;;;;;;6.53;3.92;;;;;;;23.96;41.36;99676.13;4421967;32;33111;-62
2023/05/07 04:06:00;;;;;;;5.47;3.50;;;;;;;23.95;41.33;99677.19;4421738;32;34023;-62
2023/05/07 04:08:28;;;;;;;6.18;4.05;;;;;;;23.93;41.36;99671.97;4422152;32;34806;-62
2023/05/07 04:10:56;;;;;;;5.60;3.67;;;;;;;23.94;41.36;99670.91;4422093;32;33966;-62
2023/05/07 04:13:24;;;;;;;6.18;3.72;;;;;;;23.94;41.30;99679.09;4421624;32;33244;-62
2023/05/07 04:15:52;;;;;;;5.30;3.30;;;;;;;23.93;41.30;99672.81;4407351;32;34664;-61
2023/05/07 04:18:21;;;;;;;4.72;3.22;;;;;;;23.95;41.29;99677.19;4421635;32;33933;-62
2023/05/07 04:20:52;;;;;;;6.72;3.85;;;;;;;23.94;41.27;99681.81;4422022;32;33955;-62
2023/05/07 04:23:19;;;;;;;7.10;3.87;;;;;;;23.94;41.26;99679.09;4421945;32;33122;-61
2023/05/07 04:25:47;;;;;;;6.50;3.20;;;;;;;23.93;41.25;99682.88;4421669;32;33506;-62
2023/05/07 04:28:16;;;;;;;5.20;3.45;;;;;;;23.94;41.27;99692.72;4421746;32;34662;-62
2023/05/07 04:30:44;;;;;;;5.93;3.60;;;;;;;23.92;41.30;99695.69;4421890;32;33997;-62
2023/05/07 04:33:14;;;;;;;5.43;3.75;;;;;;;23.93;41.37;99694.59;4421832;32;33236;-62
2023/05/07 04:35:42;;;;;;;5.00;3.00;;;;;;;23.92;41.47;99698.41;4421697;32;33565;-62
2023/05/07 04:38:09;;;;;;;5.40;3.30;;;;;;;23.93;41.47;99700.06;4421419;32;34237;-62
2023/05/07 04:40:38;;;;;;;5.00;3.30;;;;;;;23.93;41.50;99704.69;4421620;32;34031;-62
2023/05/07 04:43:07;;;;;;;5.22;3.15;;;;;;;23.93;41.47;99696.50;4421679;32;34310;-62
2023/05/07 04:45:36;;;;;;;6.55;3.55;;;;;;;23.93;41.48;99701.94;4421619;32;33192;-62
2023/05/07 04:48:04;;;;;;;5.68;3.70;;;;;;;23.93;41.47;99693.78;4421460;32;34777;-61
2023/05/07 04:50:32;;;;;;;5.80;3.47;;;;;;;23.93;41.49;99699.22;4421324;32;34447;-62
2023/05/07 04:53:01;;;;;;;6.60;3.83;;;;;;;23.93;41.42;99699.22;4407847;32;33462;-62
2023/05/07 04:55:29;;;;;;;5.78;3.25;;;;;;;23.92;41.45;99701.13;4421319;32;34575;-61
2023/05/07 04:57:56;;;;;;;6.03;3.80;;;;;;;23.91;41.45;99694.00;4421219;32;34670;-62
2023/05/07 05:00:26;;;;;;;5.22;3.33;;;;;;;23.91;41.46;99695.87;4421440;32;33612;-62
2023/05/07 05:02:58;;;;;;;5.55;3.40;;;;;;;23.91;41.51;99695.87;4421040;32;34159;-62
2023/05/07 05:05:25;;;;;;;5.65;3.80;;;;;;;23.91;41.53;99701.34;4421301;32;33743;-62
2023/05/07 05:07:53;;;;;;;5.22;3.33;;;;;;;23.91;41.51;99706.78;4420981;32;34765;-62
2023/05/07 05:10:21;;;;;;;6.28;3.80;;;;;;;23.90;41.59;99705.97;4420891;32;34666;-62
2023/05/07 05:12:51;;;;;;;;;;;;;;;23.90;41.64;99699.69;4408129;32;32560;-63
2023/05/07 05:15:19;;;;;;;6.68;3.55;;;;;;;24.00;41.43;99705.41;4420799;32;34190;-61
2023/05/07 05:17:47;;;;;;;8.30;3.60;;;;;;;23.93;41.52;99704.69;4420893;32;34017;-61
2023/05/07 05:20:15;;;;;;;6.05;3.10;;;;;;;23.91;41.64;99706.78;4421178;32;34542;-61
2023/05/07 05:22:43;;;;;;;5.80;3.60;;;;;;;23.91;41.66;99699.44;4420745;32;33411;-62
2023/05/07 05:25:11;;;;;;;6.03;3.33;;;;;;;23.91;41.70;99706.78;4421040;32;34562;-61
2023/05/07 05:27:39;;;;;;;5.60;3.08;;;;;;;23.90;41.73;99711.41;4421401;32;34014;-61
2023/05/07 05:30:09;;;;;;;6.03;3.55;;;;;;;23.91;41.76;99715.78;4423225;32;34943;-61
2023/05/07 05:32:37;;;;;;;5.22;3.60;;;;;;;23.92;41.74;99703.00;4409755;32;34220;-61
2023/05/07 05:35:05;;;;;;;5.05;3.75;;;;;;;23.91;41.77;99696.72;4422890;32;34635;-61
2023/05/07 05:37:33;;;;;;;5.12;3.33;;;;;;;23.91;41.77;99699.44;4422995;32;34254;-60
2023/05/07 05:40:01;;;;;;;5.07;3.25;;;;;;;23.92;41.77;99692.09;4423728;32;33661;-72
2023/05/07 05:42:30;;;;;;;6.05;3.20;;;;;;;23.92;41.79;99697.53;4924543;26;35708;-90
2023/05/07 05:44:57;;;;;;;7.47;3.80;;;;;;;23.92;41.79;99690.22;4465432;32;35297;-79
2023/05/07 05:53:39;;;;;;;5.43;3.22;;;;;;;23.92;41.83;99692.09;4545108;26;20100;-75
2023/05/07 05:56:07;;;;;;;6.65;3.40;;;;;;;23.92;41.83;99689.37;4453515;32;35278;-70
2023/05/07 06:04:32;;;;;;;6.18;3.17;;;;;;;23.92;41.94;99694.81;4438513;32;34213;-64
2023/05/07 06:06:59;;;;;;;6.25;3.60;;;;;;;23.90;41.98;99699.69;4426865;32;35303;-63
2023/05/07 06:15:47;;;;;;;4.90;3.17;;;;;;;23.90;42.01;99697.78;4699177;26;20239;-79
2023/05/07 06:18:15;;;;;;;4.25;2.80;;;;;;;23.90;42.04;99697.78;4465403;32;35288;-73
2023/05/07 06:31:22;;;;;;;4.43;3.00;;;;;;;24.54;40.94;99697.25;4463911;31;1024033;-62
2023/05/07 06:33:50;;;;;;;5.15;2.70;;;;;;;24.54;40.94;99697.25;4496196;31;33982;-62
2023/05/07 06:36:18;;;;;;;5.22;2.53;;;;;;;23.92;41.95;99706.56;4496489;32;33691;-62
2023/05/07 06:38:46;;;;;;;6.07;2.60;;;;;;;23.91;42.00;99704.06;4496194;32;34899;-62
2023/05/07 06:41:15;;;;;;;5.15;3.00;;;;;;;23.90;42.01;99708.69;4496237;31;33793;-62
2023/05/07 06:43:43;;;;;;;4.68;3.22;;;;;;;23.90;42.05;99707.84;4496340;32;33286;-62
2023/05/07 06:46:11;;;;;;;4.47;2.90;;;;;;;23.90;42.06;99710.59;4496197;31;34712;-62
2023/05/07 06:48:39;;;;;;;4.35;2.60;;;;;;;23.90;42.05;99700.50;4481804;32;34929;-62
2023/05/07 06:51:07;;;;;;;7.45;3.12;;;;;;;23.90;42.07;99710.59;4480272;32;34365;-62
2023/05/07 06:53:35;;;;;;;5.53;2.90;;;;;;;23.92;42.10;99711.16;4480245;32;33122;-62
2023/05/07 07:01:54;;;;;;;4.65;2.58;;;;;;;23.94;42.15;99706.34;4283657;33;34066;-63
2023/05/07 07:04:23;;;;;;;7.12;2.60;;;;;;;23.93;42.12;99713.69;4285228;33;34166;-63
2023/05/07 07:06:53;;;;;;;;;;;;;;;23.93;42.10;99713.69;4285463;33;34820;-63
2023/05/07 07:09:21;;;;;;;5.25;2.90;;;;;;;24.02;41.93;99725.09;4295922;33;34219;-63
2023/05/07 07:11:50;;;;;;;4.72;2.50;;;;;;;23.95;42.06;99727.06;4285183;33;33983;-62
2023/05/07 07:14:19;;;;;;;6.30;3.00;;;;;;;23.96;42.26;99733.34;4284892;33;33528;-62
2023/05/07 07:16:47;;;;;;;4.95;2.58;;;;;;;23.95;42.19;99728.97;4285207;33;34070;-62
2023/05/07 07:19:16;;;;;;;4.95;2.50;;;;;;;23.95;42.11;99732.50;4285040;33;33773;-63
2023/05/07 07:21:44;;;;;;;6.20;2.70;;;;;;;23.96;42.05;99744.25;4284965;33;33703;-63
2023/05/07 07:24:18;;;;;;;5.43;3.03;;;;;;;23.96;42.01;99736.06;4285128;33;34240;-63
2023/05/07 07:26:46;;;;;;;5.57;2.83;;;;;;;23.96;42.03;99742.34;4285138;33;33748;-61
2023/05/07 07:29:14;;;;;;;5.65;2.80;;;;;;;23.97;42.05;99754.94;4284775;33;34816;-61
2023/05/07 07:31:42;;;;;;;5.32;2.83;;;;;;;23.96;42.05;99744.25;4277647;33;34538;-62
2023/05/07 07:34:10;;;;;;;8.75;2.97;;;;;;;23.97;42.25;99746.75;4275174;33;34069;-62
2023/05/07 07:36:38;;;;;;;9.70;3.30;;;;;;;23.97;42.45;99754.06;4260641;33;33905;-62
2023/05/07 07:39:13;;;;;;;7.47;2.80;;;;;;;23.98;42.29;99761.22;4261070;33;33909;-62
2023/05/07 07:41:41;;;;;;;4.07;2.37;;;;;;;23.97;42.17;99760.38;4260650;33;33430;-62
2023/05/07 07:44:12;;;;;;;6.37;2.83;;;;;;;23.96;42.17;99766.88;4260812;33;33076;-62
2023/05/07 07:46:44;;;;;;;6.62;2.78;;;;;;;23.97;42.25;99764.97;4261159;33;33977;-61
2023/05/07 07:49:12;;;;;;;6.65;2.67;;;;;;;23.97;42.14;99770.44;4260513;33;34931;-61
2023/05/07 07:51:39;;;;;;;6.93;2.47;;;;;;;23.97;42.11;99759.53;4261081;33;33863;-62
2023/05/07 07:54:07;;;;;;;8.85;3.42;;;;;;;23.97;42.17;99763.09;4260722;33;33684;-61
2023/05/07 07:56:35;;;;;;;10.02;3.60;;;;;;;23.97;42.27;99760.38;4260845;33;34183;-64
2023/05/07 07:59:03;;;;;;;12.73;4.22;;;;;;;23.97;42.49;99759.53;4260807;33;34630;-61
2023/05/07 08:01:31;;;;;;;7.60;3.40;;;;;;;23.97;42.65;99767.69;4262041;33;33639;-62
2023/05/07 08:03:59;;;;;;;6.47;3.70;;;;;;;23.98;42.59;99769.38;4274111;33;34450;-64
2023/05/07 08:06:28;;;;;;;7.00;4.22;;;;;;;23.98;42.46;99767.50;4274525;33;33634;-62
2023/05/07 08:08:56;;;;;;;6.78;3.85;;;;;;;23.97;42.36;99771.28;4274705;33;34962;-62
2023/05/07 08:11:23;;;;;;;7.53;3.55;;;;;;;23.97;42.30;99765.84;4274554;33;33718;-63
2023/05/07 08:13:52;;;;;;;7.05;3.83;;;;;;;23.97;42.30;99763.09;4273931;33;34351;-62
2023/05/07 08:16:19;;;;;;;8.43;4.15;;;;;;;23.98;42.28;99758.50;4273580;33;34825;-62
2023/05/07 08:18:50;;;;;;;7.30;3.97;;;;;;;23.98;42.23;99767.50;4273706;33;34051;-63
2023/05/07 08:21:17;;;;;;;6.10;3.70;;;;;;;23.98;42.31;99753.88;4274873;33;34655;-62
2023/05/07 08:23:45;;;;;;;5.70;3.50;;;;;;;23.98;42.26;99753.88;4274847;33;34375;-65
2023/05/07 08:26:12;;;;;;;6.57;3.85;;;;;;;23.99;42.29;99746.50;4274343;33;33533;-61
2023/05/07 08:28:40;;;;;;;7.00;4.00;;;;;;;23.98;42.42;99751.13;4274534;33;33963;-63
2023/05/07 08:31:08;;;;;;;7.43;4.30;;;;;;;23.98;42.54;99750.31;4274730;33;33764;-63
2023/05/07 08:33:36;;;;;;;6.60;4.35;;;;;;;23.98;42.63;99755.75;4274905;33;34272;-63
2023/05/07 08:36:04;;;;;;;5.43;3.40;;;;;;;23.97;42.72;99754.94;4274559;33;34678;-63
2023/05/07 08:38:32;;;;;;;6.97;4.12;;;;;;;23.97;42.65;99760.38;4274432;33;34844;-64
2023/05/07 08:41:00;;;;;;;11.48;4.12;;;;;;;23.98;42.70;99759.31;4275058;33;33883;-64
2023/05/07 08:43:29;;;;;;;9.20;3.80;;;;;;;23.97;42.72;99754.06;4274079;33;34188;-64
2023/05/07 08:45:56;;;;;;;7.55;3.83;;;;;;;23.96;42.65;99764.16;4261587;33;33452;-64
2023/05/07 08:48:25;;;;;;;7.20;3.65;;;;;;;23.97;42.64;99759.53;4261550;33;34689;-64
2023/05/07 08:50:53;;;;;;;7.07;3.47;;;;;;;23.96;42.67;99764.16;4274886;33;33568;-64
2023/05/07 08:53:21;;;;;;;6.40;3.42;;;;;;;23.96;42.61;99758.69;4261660;33;33267;-64
2023/05/07 08:55:49;;;;;;;10.30;4.22;;;;;;;23.96;42.56;99761.44;4274972;33;34896;-64
2023/05/07 08:58:16;;;;;;;7.43;3.60;;;;;;;23.96;42.62;99768.78;4273770;33;33896;-64
2023/05/07 09:00:44;;;;;;;8.52;3.87;;;;;;;23.95;42.51;99765.22;4274304;33;34590;-64
2023/05/07 09:03:12;;;;;;;7.40;3.72;;;;;;;23.97;42.53;99768.56;4274851;33;33586;-64
2023/05/07 09:05:40;;;;;;;8.90;3.17;;;;;;;23.96;42.49;99760.59;4273717;33;33993;-64
2023/05/07 09:08:08;;;;;;;11.05;3.67;;;;;;;23.96;42.49;99755.97;4274838;33;34816;-64
2023/05/07 09:10:36;;;;;;;7.00;3.28;;;;;;;23.98;42.51;99767.50;4275027;33;33894;-64
2023/05/07 09:13:05;;;;;;;7.53;3.40;;;;;;;23.97;42.46;99765.84;4273774;33;32930;-64
2023/05/07 09:15:34;;;;;;;4.68;2.70;;;;;;;23.98;42.43;99753.88;4274754;33;33736;-64
2023/05/07 09:18:02;;;;;;;4.32;2.70;;;;;;;23.98;42.40;99756.59;4274550;33;33584;-64
2023/05/07 09:20:31;;;;;;;6.00;2.87;;;;;;;23.97;42.40;99760.38;4274775;33;33936;-64
2023/05/07 09:22:59;;;;;;;4.80;3.05;;;;;;;23.97;42.36;99762.25;4274692;33;33316;-64
2023/05/07 09:25:31;;;;;;;5.85;2.72;;;;;;;23.98;42.35;99758.50;4274786;33;33804;-64
2023/05/07 09:43:36;;;;;;;6.45;3.28;;;;;;;23.97;42.23;99749.47;4297889;28;20149;-68
2023/05/07 09:46:14;;;;;;;4.97;2.67;;;;;;;23.97;42.21;99764.97;4250023;33;33456;-68
2023/05/07 09:48:43;;;;;;;4.55;2.37;;;;;;;23.95;42.24;99757.03;4261759;33;33768;-67
2023/05/07 09:51:33;;;;;;;8.65;2.85;;;;;;;23.96;42.19;99760.59;4249826;33;34895;-66
2023/05/07 09:54:03;;;;;;;5.90;2.83;;;;;;;23.97;42.15;99765.84;4238221;33;32677;-67
2023/05/07 09:56:37;;;;;;;3.40;2.20;;;;;;;23.98;42.12;99772.94;4250825;33;32722;-67
2023/05/07 09:59:07;;;;;;;4.50;2.65;;;;;;;23.96;42.12;99766.88;4250146;33;34344;-68
2023/05/07 10:01:36;;;;;;;4.32;2.45;;;;;;;23.96;42.11;99766.88;4238002;33;32963;-68
2023/05/07 10:04:05;;;;;;;4.60;2.60;;;;;;;23.96;42.12;99775.06;4226740;33;32368;-65
2023/05/07 10:06:33;;;;;;;6.72;2.62;;;;;;;23.97;42.07;99774.00;4249814;33;33413;-68
2023/05/07 10:09:00;;;;;;;5.57;2.58;;;;;;;23.97;42.07;99771.28;4261097;33;33831;-68
2023/05/07 10:11:28;;;;;;;4.43;2.75;;;;;;;23.97;42.05;99775.88;4272824;33;34668;-67
2023/05/07 10:13:58;;;;;;;;;;;;;;;23.98;42.02;99772.13;4229737;33;33609;-68
2023/05/07 10:16:27;;;;;;;4.85;2.40;;;;;;;24.06;41.84;99766.31;4258329;33;33582;-69
2023/05/07 10:18:57;;;;;;;4.87;2.07;;;;;;;23.99;41.93;99774.59;4235606;33;33801;-68
2023/05/07 10:21:25;;;;;;;4.10;2.45;;;;;;;23.97;41.98;99767.69;4223750;33;33188;-65
2023/05/07 10:24:19;;;;;;;5.35;2.33;;;;;;;23.97;41.98;99775.88;4235579;33;32946;-67
2023/05/07 10:26:49;;;;;;;4.90;2.47;;;;;;;23.99;41.93;99769.16;4240500;33;34107;-67
2023/05/07 10:29:28;;;;;;;4.03;2.37;;;;;;;23.95;41.97;99767.94;4235558;33;33580;-67
2023/05/07 10:32:02;;;;;;;5.22;2.55;;;;;;;23.95;41.96;99773.41;4246973;33;33956;-64
2023/05/07 10:34:35;;;;;;;4.60;2.58;;;;;;;23.96;41.92;99772.31;4246862;33;34375;-67
2023/05/07 10:37:03;;;;;;;4.30;2.33;;;;;;;23.95;41.94;99767.13;4247086;33;33350;-66
2023/05/07 10:39:31;;;;;;;3.72;2.20;;;;;;;23.95;41.92;99773.41;4223473;33;33949;-66
2023/05/07 10:42:12;;;;;;;3.72;2.30;;;;;;;23.95;41.90;99773.41;4235003;33;33832;-66
2023/05/07 10:44:41;;;;;;;4.35;2.50;;;;;;;23.97;41.88;99765.84;4246457;33;33689;-66
2023/05/07 10:47:14;;;;;;;5.32;2.40;;;;;;;23.95;41.85;99765.22;4246462;33;32911;-66
2023/05/07 10:49:42;;;;;;;3.53;1.90;;;;;;;23.96;41.87;99763.31;4258473;33;34340;-67
2023/05/07 10:52:15;;;;;;;4.32;2.35;;;;;;;23.96;41.83;99761.44;4259235;33;34358;-66
2023/05/07 10:54:45;;;;;;;3.85;2.17;;;;;;;23.95;41.83;99762.50;4258439;33;33984;-67
2023/05/07 10:57:38;;;;;;;3.72;2.10;;;;;;;23.96;41.81;99764.16;4235167;33;32588;-67
2023/05/07 11:00:25;;;;;;;3.65;2.33;;;;;;;23.98;41.79;99759.31;4223671;33;32996;-65
2023/05/07 11:03:06;;;;;;;3.37;2.28;;;;;;;23.97;41.79;99757.66;4258461;33;33892;-68
2023/05/07 11:05:36;;;;;;;;;;;;;;;23.96;41.76;99764.16;4258715;33;34437;-67
2023/05/07 11:08:05;;;;;;;3.97;2.50;;;;;;;24.05;41.61;99748.31;4260083;33;33991;-66
2023/05/07 11:10:53;;;;;;;3.92;2.15;;;;;;;23.99;41.67;99747.34;4260041;33;33338;-68
2023/05/07 11:13:44;;;;;;;3.65;2.25;;;;;;;23.98;41.73;99751.13;4236357;33;32838;-67
2023/05/07 11:16:27;;;;;;;3.92;2.25;;;;;;;23.97;41.73;99749.47;4236559;33;32719;-68
2023/05/07 11:18:56;;;;;;;3.42;2.20;;;;;;;23.96;41.74;99746.97;4261191;33;33467;-67
2023/05/07 11:21:40;;;;;;;4.25;2.35;;;;;;;23.95;41.76;99742.59;4260889;33;33527;-67
2023/05/07 11:24:10;;;;;;;3.80;2.08;;;;;;;23.95;41.75;99748.87;4260881;33;33561;-65
2023/05/07 11:26:43;;;;;;;3.33;1.90;;;;;;;23.95;41.76;99756.22;4260078;33;33835;-69
2023/05/07 11:29:15;;;;;;;2.95;1.75;;;;;;;23.95;41.74;99762.50;4236596;33;34108;-68
2023/05/07 11:31:44;;;;;;;4.40;2.45;;;;;;;23.96;41.72;99753.25;4260990;33;33990;-67
2023/05/07 11:34:12;;;;;;;2.87;2.08;;;;;;;23.96;41.71;99760.59;4236564;33;32855;-66
2023/05/07 11:36:42;;;;;;;3.90;2.17;;;;;;;23.97;41.70;99756.81;4248025;33;34009;-67
2023/05/07 11:39:28;;;;;;;4.55;2.60;;;;;;;23.95;41.70;99757.03;4259997;33;33346;-68
2023/05/07 11:41:55;;;;;;;4.55;2.47;;;;;;;23.98;41.65;99753.03;4248042;33;33520;-67
2023/05/07 11:44:23;;;;;;;4.50;2.47;;;;;;;23.96;41.66;99755.97;4236379;33;33170;-68
2023/05/07 11:46:50;;;;;;;2.92;1.95;;;;;;;23.96;41.67;99753.25;4261047;33;33727;-66
2023/05/07 11:49:18;;;;;;;2.83;2.15;;;;;;;23.96;41.65;99742.34;4236455;33;34089;-67
2023/05/07 11:51:46;;;;;;;5.20;2.40;;;;;;;23.98;41.63;99744.88;4236306;33;34770;-66
2023/05/07 11:54:15;;;;;;;4.60;2.25;;;;;;;23.97;41.60;99738.59;4248107;33;34028;-67
2023/05/07 11:56:44;;;;;;;4.97;2.60;;;;;;;23.97;41.61;99737.72;4248006;33;33980;-67
2023/05/07 11:59:11;;;;;;;4.60;2.40;;;;;;;23.97;41.58;99730.41;4247818;33;33284;-67
2023/05/07 12:01:38;;;;;;;4.12;2.20;;;;;;;23.98;41.56;99731.22;4260519;33;33278;-66
2023/05/07 12:04:06;;;;;;;3.08;2.05;;;;;;;23.97;41.55;99730.41;4259494;33;33526;-68
2023/05/07 12:06:36;;;;;;;3.08;1.73;;;;;;;23.98;41.54;99731.22;4260682;33;33892;-66
2023/05/07 12:09:03;;;;;;;3.22;2.22;;;;;;;23.98;41.54;99733.97;4247715;33;32945;-67
2023/05/07 12:11:31;;;;;;;3.78;2.15;;;;;;;24.00;41.49;99729.09;4247881;33;33489;-67
2023/05/07 12:13:59;;;;;;;3.42;2.20;;;;;;;23.97;41.49;99724.97;4260592;33;33677;-67
2023/05/07 12:16:27;;;;;;;3.47;2.00;;;;;;;23.98;41.47;99732.06;4260393;33;34248;-67
2023/05/07 12:18:54;;;;;;;4.20;2.15;;;;;;;23.99;41.48;99722.00;4247894;33;33158;-67
2023/05/07 12:21:23;;;;;;;3.17;2.03;;;;;;;23.98;41.48;99715.72;4247569;33;33800;-65
2023/05/07 12:23:50;;;;;;;3.55;2.03;;;;;;;23.98;41.47;99721.16;4247485;33;34666;-67
2023/05/07 12:26:20;;;;;;;3.87;2.22;;;;;;;23.99;41.45;99727.44;4236186;33;34652;-67
2023/05/07 12:28:49;;;;;;;3.47;2.05;;;;;;;23.98;41.48;99718.44;4248199;33;33189;-68
2023/05/07 12:31:16;;;;;;;4.12;2.42;;;;;;;23.99;41.45;99722.81;4224286;33;33811;-68
2023/05/07 12:33:45;;;;;;;3.08;1.80;;;;;;;23.99;41.43;99722.00;4247699;33;33974;-67